createdAt,value
2023-01-25T00:00:07.767Z,20.57
2023-01-25T00:02:34.459Z,20.87
2023-01-25T00:05:01.124Z,20.63
2023-01-25T00:07:27.798Z,20.69
2023-01-25T00:09:54.427Z,20.67
2023-01-25T00:12:21.116Z,21.02
2023-01-25T00:14:47.747Z,20.94
2023-01-25T00:17:14.429Z,20.81
2023-01-25T00:19:41.008Z,20.77
2023-01-25T00:22:07.764Z,21.02
2023-01-25T00:24:34.435Z,20.86
2023-01-25T00:27:02.572Z,20.51
2023-01-25T00:29:31.562Z,20.76
2023-01-25T00:32:02.431Z,21.03
2023-01-25T00:34:44.877Z,20.97
2023-01-25T00:37:28.893Z,21.02
2023-01-25T00:39:57.422Z,20.81
2023-01-25T00:42:24.098Z,21.01
2023-01-25T00:44:50.927Z,20.77
2023-01-25T00:47:20.163Z,21.00
2023-01-25T00:49:47.073Z,20.96
2023-01-25T00:52:14.218Z,20.85
2023-01-25T00:54:41.312Z,21.01
2023-01-25T00:57:08.996Z,21.00
2023-01-25T00:59:35.929Z,21.00
2023-01-25T01:02:03.639Z,21.01
2023-01-25T01:04:30.704Z,20.85
2023-01-25T01:06:57.327Z,20.96
2023-01-25T01:09:24.828Z,20.99
2023-01-25T01:11:53.280Z,20.67
2023-01-25T01:14:21.179Z,20.98
2023-01-25T01:16:48.229Z,20.88
2023-01-25T01:19:15.847Z,20.91
2023-01-25T01:21:42.569Z,21.00
2023-01-25T01:24:10.970Z,21.00
2023-01-25T01:26:37.869Z,20.85
2023-01-25T01:29:04.869Z,20.93
2023-01-25T01:31:31.802Z,20.85
2023-01-25T01:34:20.328Z,20.94
2023-01-25T01:36:49.962Z,20.98
2023-01-25T01:39:17.013Z,20.97
2023-01-25T01:41:43.900Z,20.98
2023-01-25T01:44:20.395Z,20.98
2023-01-25T01:46:58.825Z,20.44
2023-01-25T01:49:32.637Z,20.52
2023-01-25T01:52:14.931Z,20.97
2023-01-25T01:55:13.901Z,20.96
2023-01-25T01:57:47.026Z,20.97
2023-01-25T02:00:19.154Z,20.82
2023-01-25T02:02:46.667Z,20.96
2023-01-25T02:05:27.725Z,20.77
2023-01-25T02:07:55.927Z,20.95
2023-01-25T02:10:26.856Z,20.80
2023-01-25T02:12:56.670Z,20.78
2023-01-25T02:15:23.727Z,20.45
2023-01-25T02:17:51.506Z,20.67
2023-01-25T02:20:37.717Z,20.92
2023-01-25T02:23:13.796Z,20.94
2023-01-25T02:25:41.652Z,20.76
2023-01-25T02:28:18.746Z,20.93
2023-01-25T02:30:46.018Z,20.72
2023-01-25T02:33:13.197Z,20.77
2023-01-25T02:35:39.815Z,20.93
2023-01-25T02:38:07.410Z,20.65
2023-01-25T02:40:43.148Z,20.77
2023-01-25T02:43:09.895Z,20.92
2023-01-25T02:45:36.582Z,20.88
2023-01-25T02:48:03.312Z,20.87
2023-01-25T02:50:29.943Z,20.54
2023-01-25T02:52:56.545Z,20.61
2023-01-25T02:55:23.182Z,20.91
2023-01-25T02:57:49.980Z,20.87
2023-01-25T03:00:17.786Z,20.59
2023-01-25T03:02:45.592Z,20.91
2023-01-25T03:05:12.593Z,20.81
2023-01-25T03:07:39.260Z,20.73
2023-01-25T03:10:08.657Z,20.90
2023-01-25T03:12:36.053Z,20.90
2023-01-25T03:15:02.824Z,20.89
2023-01-25T03:17:31.189Z,20.64
2023-01-25T03:19:57.815Z,20.63
2023-01-25T03:22:25.529Z,20.75
2023-01-25T03:24:52.407Z,20.61
2023-01-25T03:27:19.278Z,20.63
2023-01-25T03:29:50.186Z,20.05
2023-01-25T03:32:21.647Z,20.71
2023-01-25T03:34:49.132Z,20.86
2023-01-25T03:37:16.972Z,20.71
2023-01-25T03:39:44.227Z,20.85
2023-01-25T03:42:11.716Z,20.83
2023-01-25T03:44:38.668Z,20.84
2023-01-25T03:47:05.846Z,20.60
2023-01-25T03:49:33.217Z,20.84
2023-01-25T03:52:00.993Z,20.74
2023-01-25T03:54:37.402Z,20.83
2023-01-25T03:57:04.064Z,20.40
2023-01-25T03:59:37.210Z,20.56
2023-01-25T04:02:04.308Z,20.73
2023-01-25T04:04:30.871Z,20.77
2023-01-25T04:06:58.010Z,20.57
2023-01-25T04:09:25.207Z,20.82
2023-01-25T04:11:55.149Z,20.81
2023-01-25T04:14:35.061Z,20.53
2023-01-25T04:17:08.267Z,20.65
2023-01-25T04:19:53.700Z,20.80
2023-01-25T04:22:25.291Z,20.35
2023-01-25T04:24:54.695Z,20.74
2023-01-25T04:27:21.315Z,20.62
2023-01-25T04:30:08.986Z,20.63
2023-01-25T04:32:37.081Z,20.74
2023-01-25T04:35:14.280Z,20.74
2023-01-25T04:37:41.246Z,20.75
2023-01-25T04:40:09.424Z,20.72
2023-01-25T04:42:41.941Z,20.73
2023-01-25T04:45:09.776Z,20.54
2023-01-25T04:47:36.921Z,20.31
2023-01-25T04:50:07.424Z,20.32
2023-01-25T04:52:34.173Z,20.43
2023-01-25T04:55:00.693Z,20.44
2023-01-25T04:57:28.909Z,20.49
2023-01-25T04:59:55.611Z,20.52
2023-01-25T05:02:23.704Z,20.61
2023-01-25T05:04:52.991Z,20.75
2023-01-25T05:07:20.782Z,20.75
2023-01-25T05:09:47.333Z,20.43
2023-01-25T05:12:14.172Z,20.66
2023-01-25T05:14:52.254Z,20.74
2023-01-25T05:17:20.768Z,20.44
2023-01-25T05:19:47.764Z,20.65
2023-01-25T05:22:20.723Z,20.69
2023-01-25T05:24:50.862Z,20.68
2023-01-25T05:27:20.341Z,20.73
2023-01-25T05:29:53.080Z,20.72
2023-01-25T05:32:23.952Z,20.68
2023-01-25T05:34:51.057Z,20.71
2023-01-25T05:37:20.470Z,20.71
2023-01-25T05:39:52.800Z,20.70
2023-01-25T05:42:19.707Z,20.69
2023-01-25T05:44:48.087Z,20.59
2023-01-25T05:47:17.757Z,20.62
2023-01-25T05:49:45.025Z,20.55
2023-01-25T05:52:18.389Z,20.67
2023-01-25T05:54:45.193Z,20.37
2023-01-25T05:57:14.667Z,20.67
2023-01-25T05:59:41.740Z,20.67
2023-01-25T06:02:10.586Z,20.67
2023-01-25T06:04:37.704Z,20.63
2023-01-25T06:07:04.822Z,20.61
2023-01-25T06:09:32.651Z,20.54
2023-01-25T06:11:59.201Z,20.66
2023-01-25T06:14:25.873Z,20.52
2023-01-25T06:16:52.723Z,20.65
2023-01-25T06:19:37.725Z,20.59
2023-01-25T06:22:22.163Z,20.63
2023-01-25T06:24:48.870Z,20.44
2023-01-25T06:27:15.562Z,20.51
2023-01-25T06:29:44.442Z,20.29
2023-01-25T06:32:11.145Z,20.59
2023-01-25T06:34:38.075Z,20.31
2023-01-25T06:37:08.339Z,19.97
2023-01-25T06:39:35.138Z,20.14
2023-01-25T06:42:01.741Z,20.64
2023-01-25T06:44:29.915Z,20.23
2023-01-25T06:46:58.012Z,20.59
2023-01-25T06:49:24.796Z,20.18
2023-01-25T06:51:51.401Z,20.30
2023-01-25T06:54:18.071Z,20.59
2023-01-25T06:56:44.670Z,20.57
2023-01-25T06:59:11.374Z,20.06
2023-01-25T07:01:38.075Z,20.61
2023-01-25T07:04:04.921Z,20.27
2023-01-25T07:09:14.513Z,20.41
2023-01-25T07:11:41.256Z,20.46
2023-01-25T07:14:07.812Z,20.53
2023-01-25T07:16:37.217Z,20.28
2023-01-25T07:19:13.941Z,20.58
2023-01-25T07:21:40.776Z,20.58
2023-01-25T07:24:29.055Z,20.57
2023-01-25T07:26:56.775Z,20.46
2023-01-25T07:29:23.507Z,20.56
2023-01-25T07:31:50.316Z,20.42
2023-01-25T07:34:17.103Z,20.37
2023-01-25T07:36:47.063Z,20.51
2023-01-25T07:39:13.839Z,20.23
2023-01-25T07:41:40.970Z,20.50
2023-01-25T07:44:12.460Z,20.60
2023-01-25T07:46:51.268Z,20.60
2023-01-25T07:49:18.318Z,20.29
2023-01-25T07:51:44.838Z,20.58
2023-01-25T07:54:12.410Z,20.45
2023-01-25T07:56:40.435Z,20.41
2023-01-25T07:59:09.920Z,20.57
2023-01-25T08:01:37.401Z,20.57
2023-01-25T08:04:05.342Z,20.58
2023-01-25T08:06:35.980Z,20.58
2023-01-25T08:09:20.243Z,20.58
2023-01-25T08:11:49.268Z,20.55
2023-01-25T08:14:16.010Z,20.52
2023-01-25T08:16:42.712Z,20.36
2023-01-25T08:19:10.966Z,20.63
2023-01-25T08:21:39.124Z,20.62
2023-01-25T08:24:27.099Z,20.64
2023-01-25T08:26:53.799Z,20.55
2023-01-25T08:29:20.350Z,20.57
2023-01-25T08:31:46.995Z,20.69
2023-01-25T08:34:14.944Z,20.72
2023-01-25T08:36:41.627Z,20.73
2023-01-25T08:39:10.785Z,20.62
2023-01-25T08:41:39.797Z,20.74
2023-01-25T08:44:06.288Z,20.63
2023-01-25T08:46:34.363Z,20.59
2023-01-25T08:49:02.311Z,20.75
2023-01-25T08:51:31.513Z,20.82
2023-01-25T08:54:06.028Z,20.62
2023-01-25T08:56:33.549Z,20.80
2023-01-25T08:59:00.089Z,20.86
2023-01-25T09:01:26.689Z,20.88
2023-01-25T09:03:54.837Z,20.82
2023-01-25T09:08:44.140Z,20.92
2023-01-25T09:11:14.588Z,20.94
2023-01-25T09:13:44.431Z,20.95
2023-01-25T09:16:13.624Z,20.96
2023-01-25T09:18:43.166Z,21.00
2023-01-25T09:21:15.490Z,21.01
2023-01-25T09:23:51.118Z,21.03
2023-01-25T09:26:31.534Z,21.06
2023-01-25T09:29:01.612Z,21.06
2023-01-25T09:31:29.310Z,21.05
2023-01-25T09:34:01.861Z,21.08
2023-01-25T09:36:28.529Z,21.11
2023-01-25T09:38:55.670Z,21.13
2023-01-25T09:42:00.823Z,21.16
2023-01-25T09:44:45.075Z,21.19
2023-01-25T09:47:25.942Z,21.08
2023-01-25T09:50:25.094Z,21.22
2023-01-25T09:53:15.347Z,21.24
2023-01-25T09:55:42.097Z,21.25
2023-01-25T09:58:14.497Z,21.27
2023-01-25T10:00:48.068Z,21.28
2023-01-25T10:03:23.426Z,21.29
2023-01-25T10:05:54.269Z,21.22
2023-01-25T10:08:32.869Z,21.32
2023-01-25T10:11:12.075Z,21.30
2023-01-25T10:13:42.735Z,21.33
2023-01-25T10:16:32.934Z,21.34
2023-01-25T10:19:15.260Z,21.34
2023-01-25T10:21:55.244Z,21.36
2023-01-25T10:24:45.030Z,21.36
2023-01-25T10:27:20.402Z,21.36
2023-01-25T10:29:50.823Z,21.25
2023-01-25T10:32:32.009Z,21.30
2023-01-25T10:35:15.589Z,21.39
2023-01-25T10:37:47.018Z,21.40
2023-01-25T10:40:23.296Z,21.41
2023-01-25T10:43:07.035Z,21.30
2023-01-25T10:45:33.646Z,21.42
2023-01-25T10:48:08.322Z,21.14
2023-01-25T10:50:47.026Z,21.45
2023-01-25T10:53:25.634Z,21.46
2023-01-25T10:55:57.645Z,21.47
2023-01-25T10:58:33.479Z,21.48
2023-01-25T11:01:01.118Z,21.47
2023-01-25T11:03:41.974Z,21.45
2023-01-25T11:06:09.515Z,21.42
2023-01-25T11:08:43.119Z,21.46
2023-01-25T11:11:36.962Z,21.38
2023-01-25T11:14:17.334Z,21.46
2023-01-25T11:16:48.198Z,21.34
2023-01-25T11:19:36.358Z,21.46
2023-01-25T11:22:21.379Z,21.46
2023-01-25T11:24:48.037Z,21.44
2023-01-25T11:27:25.960Z,21.37
2023-01-25T11:30:11.786Z,21.45
2023-01-25T11:32:39.787Z,21.49
2023-01-25T11:35:21.225Z,21.50
2023-01-25T11:38:06.203Z,21.50
2023-01-25T11:40:44.780Z,21.51
2023-01-25T11:44:05.778Z,21.50
2023-01-25T11:46:45.876Z,21.53
2023-01-25T11:49:31.041Z,21.54
2023-01-25T11:52:22.699Z,21.55
2023-01-25T11:55:15.413Z,21.53
2023-01-25T11:57:54.406Z,21.56
2023-01-25T12:00:23.944Z,21.56
2023-01-25T12:02:59.284Z,21.57
2023-01-25T12:05:28.732Z,21.57
2023-01-25T12:08:33.019Z,21.58
2023-01-25T12:11:09.491Z,21.56
2023-01-25T12:14:00.010Z,21.57
2023-01-25T12:16:44.664Z,21.50
2023-01-25T12:19:34.670Z,21.58
2023-01-25T12:22:01.185Z,21.53
2023-01-25T12:25:05.040Z,21.59
2023-01-25T12:27:52.114Z,21.31
2023-01-25T12:30:27.172Z,21.57
2023-01-25T12:33:20.898Z,21.58
2023-01-25T12:35:54.839Z,21.58
2023-01-25T12:38:35.042Z,21.59
2023-01-25T12:41:23.202Z,21.59
2023-01-25T12:44:33.506Z,21.60
2023-01-25T12:47:20.759Z,21.60
2023-01-25T12:49:55.660Z,21.54
2023-01-25T12:52:39.682Z,21.63
2023-01-25T12:55:13.141Z,21.59
2023-01-25T12:57:49.168Z,21.60
2023-01-25T13:00:40.546Z,21.63
2023-01-25T13:03:26.387Z,21.62
2023-01-25T13:06:22.156Z,21.62
2023-01-25T13:09:01.642Z,21.61
2023-01-25T13:11:37.002Z,21.62
2023-01-25T13:14:31.310Z,21.64
2023-01-25T13:17:23.017Z,21.64
2023-01-25T13:19:51.557Z,21.55
2023-01-25T13:22:43.161Z,21.64
2023-01-25T13:25:15.876Z,21.64
2023-01-25T13:27:42.567Z,21.64
2023-01-25T13:30:27.126Z,21.63
2023-01-25T13:35:33.014Z,21.58
2023-01-25T13:38:08.549Z,21.63
2023-01-25T13:40:38.158Z,21.62
2023-01-25T13:43:22.351Z,21.62
2023-01-25T13:45:52.157Z,21.52
2023-01-25T13:48:22.643Z,21.62
2023-01-25T13:50:53.566Z,21.56
2023-01-25T13:53:23.067Z,21.59
2023-01-25T13:55:58.232Z,21.62
2023-01-25T13:58:31.904Z,21.62
2023-01-25T14:01:13.439Z,21.61
2023-01-25T14:04:11.586Z,21.62
2023-01-25T14:06:41.103Z,21.61
2023-01-25T14:09:22.727Z,21.57
2023-01-25T14:11:57.696Z,21.61
2023-01-25T14:14:34.252Z,21.50
2023-01-25T14:17:22.180Z,21.61
2023-01-25T14:19:55.741Z,21.56
2023-01-25T14:22:32.434Z,21.62
2023-01-25T14:25:16.941Z,21.63
2023-01-25T14:27:47.026Z,21.63
2023-01-25T14:30:18.213Z,21.55
2023-01-25T14:32:44.953Z,21.64
2023-01-25T14:35:42.272Z,21.64
2023-01-25T14:38:21.007Z,21.65
2023-01-25T14:40:49.175Z,21.59
2023-01-25T14:43:17.731Z,21.65
2023-01-25T14:45:45.158Z,21.65
2023-01-25T14:48:41.640Z,21.65
2023-01-25T14:51:17.185Z,21.62
2023-01-25T14:53:50.830Z,21.67
2023-01-25T14:56:48.596Z,21.69
2023-01-25T14:59:41.578Z,21.74
2023-01-25T15:02:14.370Z,21.77
2023-01-25T15:05:15.780Z,21.79
2023-01-25T15:07:45.734Z,21.82
2023-01-25T15:10:18.880Z,21.83
2023-01-25T15:13:04.210Z,21.84
2023-01-25T15:18:40.688Z,21.87
2023-01-25T15:21:18.652Z,21.89
2023-01-25T15:23:47.710Z,21.91
2023-01-25T15:26:22.047Z,21.93
2023-01-25T15:28:50.709Z,21.95
2023-01-25T15:31:32.876Z,21.93
2023-01-25T15:34:01.423Z,21.76
2023-01-25T15:36:32.398Z,22.02
2023-01-25T15:38:59.516Z,21.97
2023-01-25T15:41:26.072Z,22.05
2023-01-25T15:43:52.773Z,22.12
2023-01-25T15:46:22.703Z,22.09
2023-01-25T15:48:51.457Z,22.06
2023-01-25T15:51:21.667Z,22.16
2023-01-25T15:53:48.882Z,22.20
2023-01-25T15:56:24.199Z,22.24
2023-01-25T15:58:54.264Z,22.26
2023-01-25T16:01:27.282Z,22.22
2023-01-25T16:03:55.755Z,22.30
2023-01-25T16:06:41.723Z,22.32
2023-01-25T16:09:17.186Z,22.23
2023-01-25T16:11:44.408Z,22.36
2023-01-25T16:14:11.396Z,22.17
2023-01-25T16:16:44.167Z,22.40
2023-01-25T16:19:15.764Z,22.33
2023-01-25T16:21:42.975Z,22.42
2023-01-25T16:24:11.103Z,22.39
2023-01-25T16:26:40.464Z,22.44
2023-01-25T16:29:09.946Z,22.23
2023-01-25T16:31:36.652Z,22.38
2023-01-25T16:34:03.295Z,22.38
2023-01-25T16:36:31.341Z,22.54
2023-01-25T16:39:09.730Z,22.45
2023-01-25T16:41:36.712Z,22.58
2023-01-25T16:44:03.268Z,22.59
2023-01-25T16:46:30.128Z,22.53
2023-01-25T16:48:58.900Z,22.59
2023-01-25T16:51:28.731Z,22.57
2023-01-25T16:54:00.513Z,22.63
2023-01-25T16:56:29.737Z,22.71
2023-01-25T16:59:00.322Z,22.74
2023-01-25T17:01:27.708Z,22.72
2023-01-25T17:03:55.752Z,22.71
2023-01-25T17:06:31.189Z,22.69
2023-01-25T17:09:04.048Z,22.67
2023-01-25T17:11:35.979Z,22.57
2023-01-25T17:14:03.376Z,22.54
2023-01-25T17:16:30.930Z,22.52
2023-01-25T17:19:06.717Z,22.55
2023-01-25T17:21:34.074Z,22.53
2023-01-25T17:24:01.676Z,22.48
2023-01-25T17:26:30.844Z,22.47
2023-01-25T17:28:59.060Z,22.45
2023-01-25T17:31:35.187Z,22.39
2023-01-25T17:34:04.207Z,22.30
2023-01-25T17:36:30.758Z,22.19
2023-01-25T17:39:01.829Z,22.33
2023-01-25T17:41:28.508Z,22.29
2023-01-25T17:43:55.026Z,22.26
2023-01-25T17:46:26.208Z,22.19
2023-01-25T17:48:53.583Z,22.15
2023-01-25T17:51:20.587Z,22.21
2023-01-25T17:53:47.504Z,22.04
2023-01-25T17:56:14.322Z,22.17
2023-01-25T17:58:41.602Z,22.14
2023-01-25T18:01:20.328Z,22.13
2023-01-25T18:03:48.683Z,22.11
2023-01-25T18:06:18.405Z,22.11
2023-01-25T18:08:48.256Z,22.08
2023-01-25T18:13:50.142Z,21.86
2023-01-25T18:16:20.114Z,21.70
2023-01-25T18:18:46.658Z,22.00
2023-01-25T18:21:16.194Z,22.00
2023-01-25T18:23:46.855Z,21.99
2023-01-25T18:26:22.270Z,21.97
2023-01-25T18:28:50.707Z,21.95
2023-01-25T18:31:18.650Z,21.92
2023-01-25T18:33:45.383Z,21.93
2023-01-25T18:36:17.792Z,21.93
2023-01-25T18:38:45.559Z,21.83
2023-01-25T18:41:12.442Z,21.91
2023-01-25T18:43:39.305Z,21.91
2023-01-25T18:46:06.243Z,21.63
2023-01-25T18:48:33.469Z,21.75
2023-01-25T18:51:05.907Z,21.62
2023-01-25T18:53:34.211Z,21.72
2023-01-25T18:56:07.837Z,21.85
2023-01-25T18:58:36.818Z,21.69
2023-01-25T19:01:07.658Z,21.82
2023-01-25T19:03:35.081Z,21.71
2023-01-25T19:06:02.211Z,21.77
2023-01-25T19:08:29.551Z,21.79
2023-01-25T19:11:06.023Z,21.79
2023-01-25T19:13:34.060Z,21.77
2023-01-25T19:16:01.453Z,21.71
2023-01-25T19:18:33.107Z,21.70
2023-01-25T19:21:06.999Z,21.76
2023-01-25T19:23:35.192Z,21.75
2023-01-25T19:26:02.102Z,21.71
2023-01-25T19:28:32.259Z,21.74
2023-01-25T19:31:07.047Z,21.75
2023-01-25T19:33:34.297Z,21.74
2023-01-25T19:36:04.199Z,21.73
2023-01-25T19:38:32.371Z,21.72
2023-01-25T19:41:09.881Z,21.75
2023-01-25T19:43:37.008Z,21.73
2023-01-25T19:46:24.735Z,21.74
2023-01-25T19:49:00.630Z,21.64
2023-01-25T19:51:39.495Z,21.73
2023-01-25T19:54:09.861Z,21.74
2023-01-25T19:56:39.525Z,21.68
2023-01-25T19:59:10.013Z,21.69
2023-01-25T20:01:43.886Z,21.74
2023-01-25T20:04:22.120Z,21.75
2023-01-25T20:06:52.834Z,21.76
2023-01-25T20:09:20.404Z,21.77
2023-01-25T20:11:47.508Z,21.68
2023-01-25T20:14:15.207Z,21.64
2023-01-25T20:16:44.184Z,21.72
2023-01-25T20:19:12.228Z,21.78
2023-01-25T20:21:39.764Z,21.76
2023-01-25T20:24:07.407Z,21.68
2023-01-25T20:28:53.187Z,21.75
2023-01-25T20:31:41.662Z,21.70
2023-01-25T20:34:12.640Z,21.77
2023-01-25T20:36:39.877Z,21.77
2023-01-25T20:39:07.882Z,21.77
2023-01-25T20:41:35.536Z,21.77
2023-01-25T20:44:09.958Z,21.78
2023-01-25T20:46:41.435Z,21.77
2023-01-25T20:49:15.665Z,21.67
2023-01-25T20:51:42.932Z,21.78
2023-01-25T20:54:09.694Z,21.70
2023-01-25T20:56:36.722Z,21.58
2023-01-25T20:59:04.084Z,21.77
2023-01-25T21:01:38.374Z,21.70
2023-01-25T21:04:09.323Z,21.76
2023-01-25T21:06:36.482Z,21.76
2023-01-25T21:09:04.015Z,21.68
2023-01-25T21:11:31.188Z,21.76
2023-01-25T21:13:59.478Z,21.75
2023-01-25T21:16:26.990Z,21.72
2023-01-25T21:18:56.288Z,21.72
2023-01-25T21:21:28.055Z,21.73
2023-01-25T21:23:57.783Z,21.74
2023-01-25T21:26:26.554Z,21.73
2023-01-25T21:28:57.827Z,21.73
2023-01-25T21:31:32.897Z,21.65
2023-01-25T21:34:00.688Z,21.72
2023-01-25T21:36:27.581Z,21.66
2023-01-25T21:38:55.339Z,21.65
2023-01-25T21:41:29.024Z,21.71
2023-01-25T21:44:29.712Z,21.72
2023-01-25T21:47:23.648Z,21.71
2023-01-25T21:50:01.855Z,21.62
2023-01-25T21:52:28.501Z,21.33
2023-01-25T21:54:55.013Z,21.64
2023-01-25T21:57:21.654Z,21.69
2023-01-25T21:59:48.922Z,21.68
2023-01-25T22:02:15.746Z,21.56
2023-01-25T22:04:42.455Z,21.70
2023-01-25T22:07:09.702Z,21.50
2023-01-25T22:11:50.853Z,21.67
2023-01-25T22:14:23.305Z,21.70
2023-01-25T22:16:51.496Z,21.56
2023-01-25T22:19:18.380Z,21.60
2023-01-25T22:21:45.499Z,21.67
2023-01-25T22:24:12.496Z,21.58
2023-01-25T22:27:04.550Z,21.67
2023-01-25T22:29:34.131Z,21.57
2023-01-25T22:32:00.781Z,21.62
2023-01-25T22:34:27.464Z,21.61
2023-01-25T22:36:54.110Z,21.50
2023-01-25T22:39:20.787Z,21.42
2023-01-25T22:41:47.749Z,21.64
2023-01-25T22:44:14.699Z,21.58
2023-01-25T22:46:41.283Z,21.63
2023-01-25T22:49:08.129Z,21.58
2023-01-25T22:51:34.836Z,21.55
2023-01-25T22:54:01.600Z,21.53
2023-01-25T22:56:31.928Z,21.61
2023-01-25T22:58:59.789Z,21.60
2023-01-25T23:01:29.361Z,21.60
2023-01-25T23:03:59.131Z,21.54
2023-01-25T23:06:31.642Z,21.58
2023-01-25T23:09:00.133Z,21.57
2023-01-25T23:11:32.065Z,21.57
2023-01-25T23:14:18.393Z,21.49
2023-01-25T23:16:45.186Z,21.56
2023-01-25T23:19:11.948Z,21.54
2023-01-25T23:21:38.678Z,21.54
2023-01-25T23:24:05.649Z,21.49
2023-01-25T23:26:37.875Z,21.41
2023-01-25T23:29:09.269Z,21.52
2023-01-25T23:31:36.194Z,21.51
2023-01-25T23:34:04.991Z,21.47
2023-01-25T23:36:38.804Z,21.48
2023-01-25T23:39:05.606Z,21.40
2023-01-25T23:41:32.382Z,21.49
2023-01-25T23:43:59.745Z,21.48
2023-01-25T23:46:28.121Z,21.49
2023-01-25T23:48:55.062Z,21.48
2023-01-25T23:51:21.649Z,21.45
2023-01-25T23:53:48.320Z,21.42
2023-01-25T23:56:21.017Z,21.37
2023-01-25T23:58:50.727Z,21.17
